Time;durP1;ratioP1;P1;durP2;ratioP2;P2;SDS_P1;SDS_P2;PMS_P1;PMS_P2;Temp;Humidity;BMP_temperature;BMP_pressure;BME280_temperature;BME280_humidity;BME280_pressure;Samples;Min_cycle;Max_cycle;Signal;HPM_P1;HPM_P2
2021/04/20 00:00:30;;;;;;;46.20;25.30;;;;;;;;;;4915073;29;20479;-67
2021/04/20 00:02:56;;;;;;;56.75;27.80;;;;;;;;;;4914958;29;20049;-68
2021/04/20 00:05:23;;;;;;;49.53;27.23;;;;;;;;;;4914463;29;20051;-67
2021/04/20 00:07:49;;;;;;;57.47;28.73;;;;;;;;;;4914960;29;20052;-67
2021/04/20 00:10:17;;;;;;;52.03;26.80;;;;;;;;;;4914992;29;20104;-67
2021/04/20 00:12:43;;;;;;;61.70;29.42;;;;;;;;;;4914883;29;20059;-67
2021/04/20 00:15:18;;;;;;;59.20;27.67;;;;;;;;;;4915299;29;20197;-68
2021/04/20 00:17:44;;;;;;;54.97;27.83;;;;;;;;;;4914784;29;20056;-67
2021/04/20 00:20:12;;;;;;;55.17;26.85;;;;;;;;;;4915052;29;20139;-67
2021/04/20 00:22:38;;;;;;;50.00;25.88;;;;;;;;;;4914792;29;20060;-67
2021/04/20 00:25:05;;;;;;;49.10;26.23;;;;;;;;;;4914821;29;20104;-67
2021/04/20 00:27:31;;;;;;;58.55;27.50;;;;;;;;;;4916131;29;20107;-68
2021/04/20 00:29:57;;;;;;;53.03;26.15;;;;;;;;;;4918650;29;20052;-68
2021/04/20 00:32:23;;;;;;;51.00;24.98;;;;;;;;;;4918351;29;20431;-68
2021/04/20 00:34:49;;;;;;;47.22;25.05;;;;;;;;;;4918369;29;20075;-68
2021/04/20 00:37:15;;;;;;;47.95;23.77;;;;;;;;;;4918347;29;20423;-68
2021/04/20 00:39:41;;;;;;;48.10;24.20;;;;;;;;;;4918393;29;20412;-67
2021/04/20 00:42:08;;;;;;;48.40;25.05;;;;;;;;;;4918463;29;20471;-68
2021/04/20 00:44:34;;;;;;;49.00;25.65;;;;;;;;;;4918267;29;20111;-67
2021/04/20 00:47:02;;;;;;;46.80;24.75;;;;;;;;;;4917992;29;20048;-67
2021/04/20 00:49:28;;;;;;;42.28;23.95;;;;;;;;;;4901290;29;20074;-68
2021/04/20 00:51:55;;;;;;;43.70;23.60;;;;;;;;;;4917936;29;20052;-67
2021/04/20 00:54:22;;;;;;;43.58;24.02;;;;;;;;;;4918181;29;20086;-67
2021/04/20 00:56:48;;;;;;;42.83;22.95;;;;;;;;;;4917310;29;20147;-67
2021/04/20 00:59:14;;;;;;;42.45;22.25;;;;;;;;;;4918494;29;20048;-67
2021/04/20 01:01:41;;;;;;;40.15;22.70;;;;;;;;;;4918042;29;20073;-67
2021/04/20 01:04:15;;;;;;;47.15;23.65;;;;;;;;;;4885722;29;20123;-67
2021/04/20 01:06:44;;;;;;;47.80;24.38;;;;;;;;;;4917197;29;20139;-67
2021/04/20 01:09:11;;;;;;;51.85;27.05;;;;;;;;;;4885992;29;20111;-67
2021/04/20 01:11:37;;;;;;;53.88;25.58;;;;;;;;;;4885393;29;20088;-67
2021/04/20 01:14:05;;;;;;;72.15;31.25;;;;;;;;;;4900985;29;20059;-67
2021/04/20 01:16:32;;;;;;;62.40;28.27;;;;;;;;;;4916783;29;20096;-67
2021/04/20 01:18:59;;;;;;;65.53;29.73;;;;;;;;;;4917661;29;20052;-67
2021/04/20 01:21:25;;;;;;;60.65;29.00;;;;;;;;;;4900700;29;20048;-67
2021/04/20 01:23:57;;;;;;;70.65;29.80;;;;;;;;;;4900697;29;20468;-67
2021/04/20 01:26:25;;;;;;;72.18;29.95;;;;;;;;;;4900664;29;20111;-68
2021/04/20 01:28:51;;;;;;;62.90;28.25;;;;;;;;;;4885117;29;20439;-67
2021/04/20 01:31:18;;;;;;;67.40;27.73;;;;;;;;;;4917505;29;20083;-67
2021/04/20 01:33:44;;;;;;;74.28;27.60;;;;;;;;;;4900380;29;20586;-67
2021/04/20 01:36:12;;;;;;;59.42;25.67;;;;;;;;;;4899913;29;20139;-67
2021/04/20 01:38:43;;;;;;;55.40;24.35;;;;;;;;;;4916303;29;20048;-68
2021/04/20 01:41:09;;;;;;;55.80;24.25;;;;;;;;;;4900330;29;20099;-68
2021/04/20 01:43:35;;;;;;;60.28;23.70;;;;;;;;;;4900132;29;20051;-67
2021/04/20 01:46:01;;;;;;;81.30;23.60;;;;;;;;;;4899691;29;20087;-67
2021/04/20 01:48:27;;;;;;;56.70;24.67;;;;;;;;;;4900180;29;20535;-68
2021/04/20 01:50:53;;;;;;;52.95;23.65;;;;;;;;;;4900169;29;20131;-67
2021/04/20 01:53:20;;;;;;;52.88;24.35;;;;;;;;;;4900312;29;20535;-67
2021/04/20 01:55:48;;;;;;;55.45;25.95;;;;;;;;;;4899688;29;20056;-67
2021/04/20 01:58:16;;;;;;;51.55;26.38;;;;;;;;;;4900212;29;20056;-67
2021/04/20 02:00:42;;;;;;;74.47;25.00;;;;;;;;;;4884624;29;20047;-67
2021/04/20 02:03:09;;;;;;;90.35;25.02;;;;;;;;;;4900003;29;20060;-68
2021/04/20 02:05:38;;;;;;;93.10;23.92;;;;;;;;;;4916086;29;20084;-68
2021/04/20 02:08:05;;;;;;;103.18;24.10;;;;;;;;;;4916496;29;20048;-68
2021/04/20 02:10:31;;;;;;;112.18;25.60;;;;;;;;;;4916774;29;20139;-67
2021/04/20 02:12:57;;;;;;;120.60;24.60;;;;;;;;;;4899739;29;20151;-68
2021/04/20 02:15:23;;;;;;;109.25;21.98;;;;;;;;;;4899123;29;20581;-68
2021/04/20 02:17:49;;;;;;;74.03;21.08;;;;;;;;;;4899663;29;20132;-68
2021/04/20 02:20:16;;;;;;;151.55;21.45;;;;;;;;;;4884285;29;20543;-67
2021/04/20 02:22:44;;;;;;;80.43;21.40;;;;;;;;;;4916377;29;20059;-67
2021/04/20 02:25:14;;;;;;;78.40;19.48;;;;;;;;;;4899594;29;20087;-67
2021/04/20 02:27:40;;;;;;;87.00;18.13;;;;;;;;;;4916017;29;20107;-67
2021/04/20 02:30:11;;;;;;;138.32;19.67;;;;;;;;;;4899733;29;20052;-67
2021/04/20 02:32:38;;;;;;;23.52;17.20;;;;;;;;;;4916180;29;20052;-67
2021/04/20 02:35:07;;;;;;;36.17;20.33;;;;;;;;;;4916007;29;20056;-68
2021/04/20 02:37:34;;;;;;;79.78;22.92;;;;;;;;;;4915709;29;20467;-68
2021/04/20 02:40:01;;;;;;;136.05;21.48;;;;;;;;;;4916244;29;20059;-66
2021/04/20 02:42:27;;;;;;;43.00;21.80;;;;;;;;;;4899288;29;20079;-67
2021/04/20 02:44:53;;;;;;;45.58;21.38;;;;;;;;;;4899393;29;20080;-67
2021/04/20 02:47:21;;;;;;;140.35;28.42;;;;;;;;;;4898498;29;20427;-67
2021/04/20 02:49:47;;;;;;;59.67;24.90;;;;;;;;;;4883712;29;20052;-68
2021/04/20 02:52:13;;;;;;;55.25;23.75;;;;;;;;;;4916076;29;20056;-67
2021/04/20 02:54:39;;;;;;;73.35;23.35;;;;;;;;;;4899144;29;20111;-67
2021/04/20 02:57:05;;;;;;;40.15;19.95;;;;;;;;;;4883019;29;20052;-67
2021/04/20 02:59:32;;;;;;;101.40;20.98;;;;;;;;;;4883495;29;20139;-67
2021/04/20 03:01:59;;;;;;;29.90;19.83;;;;;;;;;;4883345;29;20142;-67
2021/04/20 03:04:25;;;;;;;55.05;20.48;;;;;;;;;;4899022;29;20060;-67
2021/04/20 03:06:51;;;;;;;54.78;19.65;;;;;;;;;;4898270;29;20574;-67
2021/04/20 03:09:17;;;;;;;36.25;19.98;;;;;;;;;;4898911;29;20139;-67
2021/04/20 03:11:57;;;;;;;38.85;19.45;;;;;;;;;;4898880;29;20083;-68
2021/04/20 03:14:23;;;;;;;42.20;20.63;;;;;;;;;;4899114;29;20072;-67
2021/04/20 03:16:49;;;;;;;45.25;21.05;;;;;;;;;;4882535;29;20150;-71
2021/04/20 03:19:16;;;;;;;36.20;20.85;;;;;;;;;;4883322;29;20495;-67
2021/04/20 03:21:42;;;;;;;49.90;22.42;;;;;;;;;;4883031;29;20126;-67
2021/04/20 03:24:08;;;;;;;53.08;22.05;;;;;;;;;;4915598;29;20051;-67
2021/04/20 03:26:39;;;;;;;38.72;21.60;;;;;;;;;;4882583;29;20107;-67
2021/04/20 03:29:07;;;;;;;45.50;22.48;;;;;;;;;;4915169;29;20050;-67
2021/04/20 03:31:40;;;;;;;52.88;22.92;;;;;;;;;;4915180;29;20123;-67
2021/04/20 03:34:34;;;;;;;40.03;23.77;;;;;;;;;;4915440;29;20108;-67
2021/04/20 03:37:03;;;;;;;50.17;24.63;;;;;;;;;;4895796;29;20052;-67
2021/04/20 03:39:29;;;;;;;58.50;28.45;;;;;;;;;;4898622;29;20047;-67
2021/04/20 03:42:16;;;;;;;54.00;28.77;;;;;;;;;;4898094;29;20064;-67
2021/04/20 03:44:45;;;;;;;63.15;32.50;;;;;;;;;;4883578;29;20096;-67
2021/04/20 03:47:19;;;;;;;68.80;32.60;;;;;;;;;;4882680;29;20087;-67
2021/04/20 03:49:47;;;;;;;67.32;34.70;;;;;;;;;;4883209;29;20100;-67
2021/04/20 03:52:18;;;;;;;66.22;35.20;;;;;;;;;;4898405;29;20428;-68
2021/04/20 03:54:45;;;;;;;76.10;34.72;;;;;;;;;;4883164;29;20052;-67
2021/04/20 03:57:11;;;;;;;59.92;32.65;;;;;;;;;;4882616;29;20085;-67
2021/04/20 03:59:37;;;;;;;66.80;34.17;;;;;;;;;;4915171;29;20092;-67
2021/04/20 04:02:03;;;;;;;58.72;32.28;;;;;;;;;;4899528;29;20052;-67
2021/04/20 04:04:29;;;;;;;62.42;29.65;;;;;;;;;;4886908;29;20123;-67
2021/04/20 04:06:55;;;;;;;62.90;28.65;;;;;;;;;;4901610;29;20048;-67
2021/04/20 04:09:24;;;;;;;71.85;30.70;;;;;;;;;;4902337;29;20076;-67
2021/04/20 04:11:55;;;;;;;61.75;29.85;;;;;;;;;;4918661;29;20052;-68
2021/04/20 04:14:23;;;;;;;65.47;27.35;;;;;;;;;;4918567;29;20056;-68
2021/04/20 04:16:49;;;;;;;73.22;25.35;;;;;;;;;;4885938;29;20056;-68
2021/04/20 04:19:18;;;;;;;38.08;23.40;;;;;;;;;;4886481;29;20055;-68
2021/04/20 04:21:47;;;;;;;55.88;25.25;;;;;;;;;;4886355;29;20056;-68
2021/04/20 04:24:15;;;;;;;85.28;22.17;;;;;;;;;;4901806;29;20107;-69
2021/04/20 04:26:49;;;;;;;61.85;23.02;;;;;;;;;;4885844;29;20052;-68
2021/04/20 04:29:15;;;;;;;50.33;23.20;;;;;;;;;;4887091;29;20059;-68
2021/04/20 04:31:44;;;;;;;62.47;24.17;;;;;;;;;;4886210;29;20423;-68
2021/04/20 04:34:14;;;;;;;46.95;24.95;;;;;;;;;;4901641;29;20056;-68
2021/04/20 04:36:41;;;;;;;117.03;29.85;;;;;;;;;;4917632;29;20083;-68
2021/04/20 04:39:15;;;;;;;186.75;32.60;;;;;;;;;;4918499;29;20131;-68
2021/04/20 04:41:42;;;;;;;139.93;29.45;;;;;;;;;;4918106;29;20065;-69
2021/04/20 04:44:10;;;;;;;133.32;30.17;;;;;;;;;;4901695;29;20099;-68
2021/04/20 04:46:37;;;;;;;261.10;31.73;;;;;;;;;;4900939;29;20080;-68
2021/04/20 04:49:03;;;;;;;101.63;31.55;;;;;;;;;;4901714;29;20083;-69
2021/04/20 04:51:30;;;;;;;137.90;31.38;;;;;;;;;;4901138;29;20059;-68
2021/04/20 04:53:56;;;;;;;52.45;28.98;;;;;;;;;;4938468;23;20469;-69
2021/04/20 04:56:24;;;;;;;123.65;29.80;;;;;;;;;;4938497;29;20082;-68
2021/04/20 04:58:52;;;;;;;288.83;30.33;;;;;;;;;;4956004;28;20115;-69
2021/04/20 05:01:18;;;;;;;175.85;24.98;;;;;;;;;;4955035;28;20058;-69
2021/04/20 05:03:44;;;;;;;160.93;23.52;;;;;;;;;;4944747;28;20056;-69
2021/04/20 05:06:15;;;;;;;80.78;21.33;;;;;;;;;;4903800;29;20522;-69
2021/04/20 05:08:41;;;;;;;133.13;24.25;;;;;;;;;;4904137;29;20047;-70
2021/04/20 05:11:08;;;;;;;105.07;23.85;;;;;;;;;;4919958;29;20139;-69
2021/04/20 05:13:34;;;;;;;39.83;22.65;;;;;;;;;;4934007;29;20052;-69
2021/04/20 05:16:07;;;;;;;62.53;21.08;;;;;;;;;;4934947;29;20503;-69
2021/04/20 05:18:37;;;;;;;99.65;23.92;;;;;;;;;;4935338;29;20103;-70
2021/04/20 05:21:04;;;;;;;36.20;21.35;;;;;;;;;;4935596;29;20456;-69
2021/04/20 05:23:30;;;;;;;57.53;22.60;;;;;;;;;;4935259;29;20562;-70
2021/04/20 05:25:56;;;;;;;38.15;21.55;;;;;;;;;;4918994;29;20059;-69
2021/04/20 05:28:22;;;;;;;82.90;23.05;;;;;;;;;;4918973;29;20044;-69
2021/04/20 05:30:50;;;;;;;101.28;23.02;;;;;;;;;;4934741;29;20055;-69
2021/04/20 05:33:16;;;;;;;91.60;20.90;;;;;;;;;;4919271;29;20051;-70
2021/04/20 05:35:42;;;;;;;75.43;23.58;;;;;;;;;;4934463;29;20055;-69
2021/04/20 05:38:08;;;;;;;68.50;22.90;;;;;;;;;;4935308;29;20115;-69
2021/04/20 05:40:38;;;;;;;73.93;20.63;;;;;;;;;;4935021;29;20107;-69
2021/04/20 05:43:05;;;;;;;83.20;20.10;;;;;;;;;;4919054;29;20059;-69
2021/04/20 05:45:32;;;;;;;38.42;18.95;;;;;;;;;;4918859;29;20108;-69
2021/04/20 05:47:59;;;;;;;81.72;19.20;;;;;;;;;;4936032;29;20055;-69
2021/04/20 05:50:28;;;;;;;116.38;19.45;;;;;;;;;;4918917;29;20514;-69
2021/04/20 05:52:58;;;;;;;104.93;18.52;;;;;;;;;;4935743;29;20077;-69
2021/04/20 05:55:24;;;;;;;75.43;18.70;;;;;;;;;;4918455;29;20115;-69
2021/04/20 05:57:52;;;;;;;68.05;18.77;;;;;;;;;;4918975;29;20063;-69
2021/04/20 06:00:22;;;;;;;98.43;19.30;;;;;;;;;;4919033;29;20051;-70
2021/04/20 06:02:50;;;;;;;48.03;17.65;;;;;;;;;;4918759;29;20102;-69
2021/04/20 06:05:20;;;;;;;82.90;17.60;;;;;;;;;;4918394;29;20051;-69
2021/04/20 06:08:04;;;;;;;52.00;17.45;;;;;;;;;;4934298;29;20427;-68
2021/04/20 06:10:31;;;;;;;67.95;19.30;;;;;;;;;;4932990;29;20052;-68
2021/04/20 06:12:57;;;;;;;56.72;18.58;;;;;;;;;;4917698;29;20055;-68
2021/04/20 06:15:24;;;;;;;71.75;17.60;;;;;;;;;;4917931;29;20051;-68
2021/04/20 06:17:55;;;;;;;82.47;18.40;;;;;;;;;;4917942;29;20107;-68
2021/04/20 06:20:23;;;;;;;39.33;15.90;;;;;;;;;;4919416;29;20059;-69
2021/04/20 06:22:51;;;;;;;34.20;16.10;;;;;;;;;;4918486;29;20056;-69
2021/04/20 06:25:18;;;;;;;44.88;15.77;;;;;;;;;;4899853;29;20546;-70
2021/04/20 06:27:45;;;;;;;61.03;15.68;;;;;;;;;;4916145;29;20072;-70
2021/04/20 06:30:12;;;;;;;66.38;16.75;;;;;;;;;;4916477;29;20055;-70
2021/04/20 06:32:42;;;;;;;48.40;15.30;;;;;;;;;;4916076;29;20107;-69
2021/04/20 06:35:13;;;;;;;25.88;16.40;;;;;;;;;;4931862;29;20484;-69
2021/04/20 06:37:43;;;;;;;55.33;16.23;;;;;;;;;;4932470;29;20492;-69
2021/04/20 06:40:11;;;;;;;28.75;16.95;;;;;;;;;;4932157;29;20103;-69
2021/04/20 06:43:00;;;;;;;59.05;17.30;;;;;;;;;;4931503;29;20083;-70
2021/04/20 06:45:38;;;;;;;39.10;19.67;;;;;;;;;;4922539;29;20301;-69
2021/04/20 06:48:46;;;;;;;55.92;18.00;;;;;;;;;;4929002;29;20061;-69
2021/04/20 06:51:17;;;;;;;50.40;18.33;;;;;;;;;;4892005;29;20470;-69
2021/04/20 06:53:47;;;;;;;34.55;19.50;;;;;;;;;;4891420;29;20250;-69
2021/04/20 06:56:21;;;;;;;36.70;18.67;;;;;;;;;;4881943;29;20115;-69
2021/04/20 06:59:15;;;;;;;53.25;18.00;;;;;;;;;;4931685;29;20059;-69
2021/04/20 07:01:47;;;;;;;28.23;17.73;;;;;;;;;;4930806;29;20082;-69
2021/04/20 07:04:20;;;;;;;43.57;18.63;;;;;;;;;;4915149;29;20060;-69
2021/04/20 07:07:25;;;;;;;36.28;18.10;;;;;;;;;;4914298;29;20126;-69
2021/04/20 07:09:56;;;;;;;25.70;17.60;;;;;;;;;;4931093;29;20051;-69
2021/04/20 07:12:23;;;;;;;28.98;18.20;;;;;;;;;;4913553;29;20055;-69
2021/04/20 07:14:51;;;;;;;27.45;18.70;;;;;;;;;;4929617;29;20055;-69
2021/04/20 07:17:36;;;;;;;25.17;18.52;;;;;;;;;;4929273;29;20043;-69
2021/04/20 07:20:41;;;;;;;28.83;19.30;;;;;;;;;;4928809;29;20107;-70
2021/04/20 07:23:22;;;;;;;27.10;18.52;;;;;;;;;;4900813;29;20063;-71
2021/04/20 07:26:46;;;;;;;27.70;18.15;;;;;;;;;;4923880;29;20066;-71
2021/04/20 07:29:32;;;;;;;30.27;19.65;;;;;;;;;;4849410;29;20456;-72
2021/04/20 07:32:11;;;;;;;35.08;17.35;;;;;;;;;;4850486;29;20065;-71
2021/04/20 07:35:01;;;;;;;31.73;18.35;;;;;;;;;;4875211;29;20151;-73
2021/04/20 07:37:33;;;;;;;28.63;18.67;;;;;;;;;;4905177;29;20059;-72
2021/04/20 07:40:37;;;;;;;28.92;19.30;;;;;;;;;;4907693;29;20043;-70
2021/04/20 07:43:54;;;;;;;33.17;19.73;;;;;;;;;;4908940;29;20056;-70
2021/04/20 07:46:30;;;;;;;32.70;20.73;;;;;;;;;;4862783;29;20053;-70
2021/04/20 07:49:12;;;;;;;29.98;20.88;;;;;;;;;;4837278;29;20132;-70
2021/04/20 07:52:08;;;;;;;32.58;21.92;;;;;;;;;;4894706;29;20489;-69
2021/04/20 07:55:11;;;;;;;33.58;22.63;;;;;;;;;;4926507;28;20055;-69
2021/04/20 07:57:54;;;;;;;33.35;22.23;;;;;;;;;;4921683;29;20431;-71
2021/04/20 08:00:30;;;;;;;33.80;22.30;;;;;;;;;;4917457;29;20099;-70
2021/04/20 08:03:11;;;;;;;32.72;23.38;;;;;;;;;;4894005;29;20047;-71
2021/04/20 08:06:02;;;;;;;39.45;24.63;;;;;;;;;;4923048;29;20055;-71
2021/04/20 08:08:32;;;;;;;39.42;24.33;;;;;;;;;;4910482;29;20052;-70
2021/04/20 08:11:03;;;;;;;35.47;23.98;;;;;;;;;;4905333;29;20480;-71
2021/04/20 08:13:57;;;;;;;34.80;24.30;;;;;;;;;;4924749;29;20276;-71
2021/04/20 08:16:56;;;;;;;40.60;25.55;;;;;;;;;;4896519;29;20499;-70
2021/04/20 08:19:36;;;;;;;40.00;26.02;;;;;;;;;;4927616;29;20063;-71
2021/04/20 08:22:03;;;;;;;37.10;26.00;;;;;;;;;;4908054;29;20048;-71
2021/04/20 08:24:32;;;;;;;44.42;26.83;;;;;;;;;;4896091;29;20087;-69
2021/04/20 08:27:04;;;;;;;38.35;26.92;;;;;;;;;;4905801;29;20103;-70
2021/04/20 08:29:30;;;;;;;40.88;27.73;;;;;;;;;;4899853;29;20400;-71
2021/04/20 08:31:59;;;;;;;42.08;27.83;;;;;;;;;;4896071;29;20601;-69
2021/04/20 08:34:46;;;;;;;39.05;27.40;;;;;;;;;;4910881;29;20082;-73
2021/04/20 08:37:48;;;;;;;42.65;26.58;;;;;;;;;;4910101;29;20055;-71
2021/04/20 08:40:28;;;;;;;41.67;28.63;;;;;;;;;;4923053;29;20394;-71
2021/04/20 08:43:20;;;;;;;38.55;27.30;;;;;;;;;;4917154;29;20052;-69
2021/04/20 08:45:52;;;;;;;38.97;26.75;;;;;;;;;;4909618;29;20259;-73
2021/04/20 08:48:49;;;;;;;40.27;28.00;;;;;;;;;;4922974;29;20048;-73
2021/04/20 08:51:19;;;;;;;37.95;28.02;;;;;;;;;;4931541;29;20052;-72
2021/04/20 08:54:12;;;;;;;35.95;26.85;;;;;;;;;;4924613;29;20056;-69
2021/04/20 08:56:43;;;;;;;34.72;25.98;;;;;;;;;;4912610;29;20195;-70
2021/04/20 08:59:25;;;;;;;35.28;25.08;;;;;;;;;;4922452;29;20055;-69
2021/04/20 09:02:01;;;;;;;35.22;24.98;;;;;;;;;;4923690;29;20056;-69
2021/04/20 09:04:45;;;;;;;25.95;19.48;;;;;;;;;;4919678;29;20060;-69
2021/04/20 09:07:15;;;;;;;28.00;20.65;;;;;;;;;;4919549;29;20104;-70
2021/04/20 09:09:42;;;;;;;24.88;18.75;;;;;;;;;;4905799;29;20139;-69
2021/04/20 09:12:10;;;;;;;27.02;19.38;;;;;;;;;;4904830;29;20052;-67
2021/04/20 09:14:41;;;;;;;29.83;22.55;;;;;;;;;;4912898;29;20103;-70
2021/04/20 09:17:20;;;;;;;29.55;21.75;;;;;;;;;;4901532;29;20059;-71
2021/04/20 09:19:56;;;;;;;31.83;22.65;;;;;;;;;;4903815;29;20944;-71
2021/04/20 09:22:45;;;;;;;29.10;22.00;;;;;;;;;;4909249;29;20044;-72
2021/04/20 09:25:25;;;;;;;26.88;20.70;;;;;;;;;;4924408;29;20052;-71
2021/04/20 09:28:00;;;;;;;26.92;19.52;;;;;;;;;;4923639;29;20059;-70
2021/04/20 09:30:28;;;;;;;27.60;20.30;;;;;;;;;;4925138;29;20044;-72
2021/04/20 09:33:17;;;;;;;26.65;19.60;;;;;;;;;;4914801;29;20102;-70
2021/04/20 09:35:44;;;;;;;27.30;19.00;;;;;;;;;;4914516;29;20073;-72
2021/04/20 09:38:10;;;;;;;25.10;19.30;;;;;;;;;;4913362;29;20143;-73
2021/04/20 09:40:36;;;;;;;27.83;19.35;;;;;;;;;;4908721;29;20044;-72
2021/04/20 09:43:23;;;;;;;26.63;19.48;;;;;;;;;;4929536;29;20550;-72
2021/04/20 09:45:56;;;;;;;25.75;19.17;;;;;;;;;;4911828;29;20471;-71
2021/04/20 09:48:53;;;;;;;26.27;18.70;;;;;;;;;;4927491;29;20646;-70
2021/04/20 09:51:22;;;;;;;24.50;18.60;;;;;;;;;;4913536;29;20055;-71
2021/04/20 09:54:06;;;;;;;28.15;19.48;;;;;;;;;;4896459;29;20051;-72
2021/04/20 09:56:36;;;;;;;22.85;17.40;;;;;;;;;;4922193;29;20048;-69
2021/04/20 09:59:17;;;;;;;25.60;19.20;;;;;;;;;;4928725;29;20047;-70
2021/04/20 10:02:01;;;;;;;26.35;18.52;;;;;;;;;;4910833;29;20052;-70
2021/04/20 10:04:40;;;;;;;24.33;18.48;;;;;;;;;;4907694;29;20062;-71
2021/04/20 10:07:28;;;;;;;24.50;17.83;;;;;;;;;;4918369;29;20135;-69
2021/04/20 10:10:18;;;;;;;25.05;16.33;;;;;;;;;;4925390;29;20044;-69
2021/04/20 10:13:29;;;;;;;21.65;15.70;;;;;;;;;;4924431;29;20063;-70
2021/04/20 10:16:27;;;;;;;24.75;17.02;;;;;;;;;;4914370;29;20067;-71
2021/04/20 10:18:59;;;;;;;21.98;17.17;;;;;;;;;;4915512;29;20444;-69
2021/04/20 10:21:29;;;;;;;21.90;16.73;;;;;;;;;;4925701;29;20044;-70
2021/04/20 10:24:22;;;;;;;22.83;14.85;;;;;;;;;;4906940;29;20310;-70
2021/04/20 10:27:08;;;;;;;19.60;14.68;;;;;;;;;;4906074;29;20052;-70
2021/04/20 10:29:42;;;;;;;16.52;12.57;;;;;;;;;;4911961;29;20120;-71
2021/04/20 10:32:21;;;;;;;15.93;12.48;;;;;;;;;;4911306;29;20047;-69
2021/04/20 10:34:51;;;;;;;17.58;12.85;;;;;;;;;;4909391;29;20058;-69
2021/04/20 10:37:39;;;;;;;15.90;12.27;;;;;;;;;;4914225;29;20503;-70
2021/04/20 10:40:07;;;;;;;15.80;12.35;;;;;;;;;;4900713;29;20100;-70
2021/04/20 10:42:33;;;;;;;15.02;12.02;;;;;;;;;;4923211;29;20082;-70
2021/04/20 10:44:59;;;;;;;16.17;12.30;;;;;;;;;;4894706;29;20048;-70
2021/04/20 10:47:26;;;;;;;15.80;11.98;;;;;;;;;;4921897;29;20191;-70
2021/04/20 10:49:54;;;;;;;16.40;12.65;;;;;;;;;;4905796;29;20044;-70
2021/04/20 10:52:22;;;;;;;17.40;12.35;;;;;;;;;;4923663;29;20474;-72
2021/04/20 10:55:26;;;;;;;16.30;11.98;;;;;;;;;;4931889;23;20055;-73
2021/04/20 10:58:10;;;;;;;15.18;11.52;;;;;;;;;;4901997;29;20090;-70
2021/04/20 11:00:37;;;;;;;16.02;12.02;;;;;;;;;;4894636;29;20056;-74
2021/04/20 11:03:06;;;;;;;15.30;11.23;;;;;;;;;;4916176;29;20052;-71
2021/04/20 11:05:33;;;;;;;13.52;10.60;;;;;;;;;;4922576;29;20664;-72
2021/04/20 11:07:59;;;;;;;14.18;11.05;;;;;;;;;;4906210;29;20589;-74
2021/04/20 11:10:34;;;;;;;14.90;11.20;;;;;;;;;;4894302;29;20472;-70
2021/04/20 11:13:00;;;;;;;14.15;11.02;;;;;;;;;;4918703;29;20567;-71
2021/04/20 11:15:28;;;;;;;12.18;9.57;;;;;;;;;;4924644;29;20052;-71
2021/04/20 11:17:54;;;;;;;13.63;10.15;;;;;;;;;;4926329;29;20056;-73
2021/04/20 11:20:41;;;;;;;13.52;10.52;;;;;;;;;;4921973;29;20052;-73
2021/04/20 11:23:08;;;;;;;12.43;10.38;;;;;;;;;;4906242;29;20051;-71
2021/04/20 11:25:36;;;;;;;12.43;9.90;;;;;;;;;;4925729;29;20052;-72
2021/04/20 11:28:41;;;;;;;14.85;10.98;;;;;;;;;;4907972;29;20151;-71
2021/04/20 11:31:11;;;;;;;13.23;10.20;;;;;;;;;;4852414;29;20074;-71
2021/04/20 11:33:56;;;;;;;14.77;11.75;;;;;;;;;;4898978;29;20060;-72
2021/04/20 11:36:42;;;;;;;13.23;10.82;;;;;;;;;;4898081;29;20594;-73
2021/04/20 11:39:13;;;;;;;16.20;11.07;;;;;;;;;;4905264;29;20075;-74
2021/04/20 11:41:59;;;;;;;16.73;11.80;;;;;;;;;;4892594;29;20088;-74
2021/04/20 11:44:40;;;;;;;13.32;10.23;;;;;;;;;;4899090;29;20500;-74
2021/04/20 11:47:07;;;;;;;12.68;9.90;;;;;;;;;;4882936;29;20499;-73
2021/04/20 11:49:35;;;;;;;16.23;11.88;;;;;;;;;;4909763;29;20044;-74
2021/04/20 11:52:02;;;;;;;14.40;11.43;;;;;;;;;;4924081;29;20083;-75
2021/04/20 11:54:30;;;;;;;12.45;11.15;;;;;;;;;;4905983;29;20056;-74
2021/04/20 11:56:58;;;;;;;12.65;10.18;;;;;;;;;;4905807;29;20055;-70
2021/04/20 11:59:24;;;;;;;10.15;8.65;;;;;;;;;;4889734;29;20044;-71
2021/04/20 12:01:51;;;;;;;9.07;7.97;;;;;;;;;;4880744;29;20135;-71
2021/04/20 12:04:28;;;;;;;11.18;7.97;;;;;;;;;;4924710;29;20052;-71
2021/04/20 12:06:56;;;;;;;8.75;7.75;;;;;;;;;;4907384;29;20415;-71
2021/04/20 12:09:24;;;;;;;8.43;7.50;;;;;;;;;;4910872;29;20566;-70
2021/04/20 12:11:51;;;;;;;11.20;8.27;;;;;;;;;;4887239;29;20115;-71
2021/04/20 12:14:18;;;;;;;11.65;8.98;;;;;;;;;;4906602;29;20118;-72
2021/04/20 12:16:45;;;;;;;8.63;7.70;;;;;;;;;;4908839;29;20055;-72
2021/04/20 12:19:13;;;;;;;9.40;7.78;;;;;;;;;;4910922;29;20049;-71
2021/04/20 12:21:39;;;;;;;9.65;8.25;;;;;;;;;;4905251;29;20056;-70
2021/04/20 12:24:09;;;;;;;10.70;7.93;;;;;;;;;;4912456;29;20072;-71
2021/04/20 12:26:35;;;;;;;9.48;7.60;;;;;;;;;;4891160;29;20051;-72
2021/04/20 12:29:14;;;;;;;10.18;9.02;;;;;;;;;;4912308;29;20080;-71
2021/04/20 12:31:40;;;;;;;9.38;7.78;;;;;;;;;;4913071;29;20382;-72
2021/04/20 12:34:07;;;;;;;9.80;7.93;;;;;;;;;;4907661;29;20517;-72
2021/04/20 12:36:50;;;;;;;12.70;7.78;;;;;;;;;;4900626;29;20051;-71
2021/04/20 12:39:39;;;;;;;11.38;8.20;;;;;;;;;;4893007;29;20468;-72
2021/04/20 12:42:07;;;;;;;9.57;7.28;;;;;;;;;;4927890;29;20052;-72
2021/04/20 12:44:37;;;;;;;9.18;7.20;;;;;;;;;;4914612;29;20048;-72
2021/04/20 12:47:05;;;;;;;8.25;6.82;;;;;;;;;;4892109;29;20098;-72
2021/04/20 12:49:32;;;;;;;8.15;7.35;;;;;;;;;;4906723;29;20048;-73
2021/04/20 12:51:59;;;;;;;7.50;6.65;;;;;;;;;;4897312;29;20052;-73
2021/04/20 12:54:27;;;;;;;9.00;6.13;;;;;;;;;;4893423;29;20052;-75
2021/04/20 12:57:22;;;;;;;7.75;6.95;;;;;;;;;;4910286;29;20051;-76
2021/04/20 12:59:53;;;;;;;6.78;6.15;;;;;;;;;;4911600;29;20051;-75
2021/04/20 13:02:56;;;;;;;7.03;6.32;;;;;;;;;;4900771;29;20099;-76
2021/04/20 13:05:41;;;;;;;7.20;6.43;;;;;;;;;;4911978;29;20091;-75
2021/04/20 13:08:19;;;;;;;8.00;7.07;;;;;;;;;;4894473;29;20047;-75
2021/04/20 13:10:53;;;;;;;7.80;7.10;;;;;;;;;;4873384;29;20059;-76
2021/04/20 13:13:25;;;;;;;8.88;7.97;;;;;;;;;;4926499;29;20059;-74
2021/04/20 13:15:56;;;;;;;7.32;6.63;;;;;;;;;;4894475;29;20497;-76
2021/04/20 13:18:24;;;;;;;8.00;7.20;;;;;;;;;;4899175;29;20055;-73
2021/04/20 13:20:57;;;;;;;7.80;6.90;;;;;;;;;;4892689;29;20052;-72
2021/04/20 13:23:27;;;;;;;9.10;8.20;;;;;;;;;;4926177;29;20463;-72
2021/04/20 13:25:59;;;;;;;10.65;7.30;;;;;;;;;;4926628;29;20475;-72
2021/04/20 13:28:26;;;;;;;;;;;;;;;;;;4886725;29;20392;-75
2021/04/20 13:30:54;;;;;;;9.30;6.80;;;;;;;;;;4916611;29;19926;-73
2021/04/20 13:33:23;;;;;;;9.70;6.60;;;;;;;;;;4896126;29;20062;-73
2021/04/20 13:35:52;;;;;;;9.27;8.38;;;;;;;;;;4907696;29;20146;-73
2021/04/20 13:38:18;;;;;;;9.23;8.30;;;;;;;;;;4893104;29;20131;-74
2021/04/20 13:40:44;;;;;;;9.43;8.52;;;;;;;;;;4909841;29;20400;-73
2021/04/20 13:43:12;;;;;;;8.93;8.02;;;;;;;;;;4923163;29;20051;-76
2021/04/20 13:45:39;;;;;;;9.60;8.60;;;;;;;;;;4901077;29;20512;-75
2021/04/20 13:48:06;;;;;;;10.52;9.30;;;;;;;;;;4879732;29;20392;-73
2021/04/20 13:50:40;;;;;;;10.70;9.20;;;;;;;;;;4896908;29;20481;-73
2021/04/20 13:53:12;;;;;;;11.57;10.30;;;;;;;;;;4915682;29;20047;-74
2021/04/20 14:00:07;;;;;;;11.43;9.80;;;;;;;;;;4783640;30;20055;-76
2021/04/20 14:02:58;;;;;;;11.70;10.35;;;;;;;;;;4695043;30;20060;-76
2021/04/20 14:05:42;;;;;;;13.13;11.60;;;;;;;;;;4709078;30;20172;-75
2021/04/20 14:08:12;;;;;;;14.27;12.00;;;;;;;;;;4669030;30;20109;-74
2021/04/20 14:10:39;;;;;;;18.38;11.90;;;;;;;;;;4698064;29;20061;-74
2021/04/20 14:13:11;;;;;;;15.65;12.68;;;;;;;;;;4779745;29;20091;-74
2021/04/20 14:15:41;;;;;;;15.70;13.02;;;;;;;;;;4800875;29;20085;-74
2021/04/20 14:18:17;;;;;;;15.55;12.75;;;;;;;;;;4787613;29;20051;-75
2021/04/20 14:20:49;;;;;;;16.88;12.18;;;;;;;;;;4800982;29;20089;-77
2021/04/20 14:23:19;;;;;;;16.23;12.15;;;;;;;;;;4802420;29;20044;-75
2021/04/20 14:25:46;;;;;;;16.45;13.15;;;;;;;;;;4869810;29;20088;-72
2021/04/20 14:28:18;;;;;;;15.20;12.38;;;;;;;;;;4882630;29;20365;-76
2021/04/20 14:30:47;;;;;;;18.08;12.82;;;;;;;;;;4877264;29;20052;-75
2021/04/20 14:33:13;;;;;;;15.20;11.63;;;;;;;;;;4871953;29;20116;-72
2021/04/20 14:35:43;;;;;;;16.42;12.00;;;;;;;;;;4861397;29;20056;-72
2021/04/20 14:38:09;;;;;;;16.88;11.77;;;;;;;;;;4861862;29;20048;-75
2021/04/20 14:40:36;;;;;;;15.57;12.88;;;;;;;;;;4862297;29;20096;-76
2021/04/20 14:43:05;;;;;;;14.43;11.35;;;;;;;;;;4883917;29;20068;-76
2021/04/20 14:45:33;;;;;;;12.65;11.23;;;;;;;;;;4868209;29;20044;-76
2021/04/20 14:48:09;;;;;;;16.08;10.65;;;;;;;;;;4853770;29;20538;-75
2021/04/20 14:50:40;;;;;;;11.85;9.10;;;;;;;;;;4884266;29;20049;-73
2021/04/20 14:53:16;;;;;;;10.85;8.88;;;;;;;;;;4877332;29;20099;-72